createdAt,value
2022-11-16T00:02:09.759Z,59051.84
2022-11-16T00:04:36.466Z,59173.97
2022-11-16T00:07:06.852Z,59111.88
2022-11-16T00:09:33.356Z,59132.56
2022-11-16T00:12:03.607Z,59147.06
2022-11-16T00:14:31.872Z,59097.38
2022-11-16T00:16:59.381Z,59138.78
2022-11-16T00:19:26.655Z,59180.19
2022-11-16T00:21:53.868Z,59136.72
2022-11-16T00:24:23.673Z,59153.28
2022-11-16T00:26:51.487Z,59145.00
2022-11-16T00:29:20.656Z,59140.84
2022-11-16T00:31:47.587Z,59134.66
2022-11-16T00:34:14.397Z,59182.25
2022-11-16T00:36:40.868Z,59142.94
2022-11-16T00:39:11.751Z,59145.00
2022-11-16T00:41:38.270Z,59087.03
2022-11-16T00:44:06.228Z,59105.66
2022-11-16T00:46:32.927Z,59153.28
2022-11-16T00:48:59.989Z,59095.31
2022-11-16T00:51:26.695Z,59134.66
2022-11-16T00:53:54.237Z,59070.47
2022-11-16T00:56:20.794Z,59107.72
2022-11-16T00:58:47.340Z,59091.16
2022-11-16T01:01:14.464Z,59428.66
2022-11-16T01:03:41.411Z,59265.09
2022-11-16T01:06:10.439Z,59109.81
2022-11-16T01:08:38.189Z,59252.66
2022-11-16T01:11:24.308Z,59142.94
2022-11-16T01:13:51.170Z,59153.28
2022-11-16T01:16:20.777Z,59074.59
2022-11-16T01:18:53.027Z,59116.00
2022-11-16T01:21:19.991Z,59124.28
2022-11-16T01:23:46.726Z,59128.44
2022-11-16T01:26:13.304Z,59120.16
2022-11-16T01:28:42.101Z,59227.81
2022-11-16T01:31:09.579Z,59095.31
2022-11-16T01:33:36.274Z,59130.50
2022-11-16T01:36:03.022Z,59091.16
2022-11-16T01:38:30.083Z,59124.28
2022-11-16T01:40:56.907Z,59103.59
2022-11-16T01:43:25.447Z,59120.16
2022-11-16T01:45:52.463Z,59163.63
2022-11-16T01:48:29.456Z,59155.34
2022-11-16T01:50:57.507Z,59082.88
2022-11-16T01:53:24.616Z,59111.88
2022-11-16T01:55:51.447Z,59107.72
2022-11-16T01:58:19.974Z,59116.00
2022-11-16T02:00:49.044Z,59058.03
2022-11-16T02:03:22.991Z,59082.88
2022-11-16T02:06:11.193Z,59132.56
2022-11-16T02:09:24.406Z,59169.84
2022-11-16T02:12:09.676Z,59140.84
2022-11-16T02:14:45.199Z,59136.72
2022-11-16T02:17:33.168Z,59474.19
2022-11-16T02:20:15.022Z,59136.72
2022-11-16T02:23:06.376Z,59128.44
2022-11-16T02:25:38.965Z,59147.06
2022-11-16T02:28:17.113Z,59124.28
2022-11-16T02:30:47.875Z,58956.59
2022-11-16T02:33:17.660Z,59111.88
2022-11-16T02:35:47.371Z,59122.22
2022-11-16T02:38:31.195Z,59138.78
2022-11-16T02:41:03.254Z,59128.44
2022-11-16T02:43:34.510Z,59159.50
2022-11-16T02:46:05.610Z,59113.94
2022-11-16T02:48:38.124Z,59171.91
2022-11-16T02:51:06.446Z,59051.84
2022-11-16T02:53:39.492Z,59078.75
2022-11-16T02:56:06.319Z,59149.13
2022-11-16T02:58:33.168Z,59068.41
2022-11-16T03:01:01.258Z,59126.38
2022-11-16T03:03:35.367Z,59120.16
2022-11-16T03:06:08.719Z,59074.59
2022-11-16T03:08:41.423Z,59099.44
2022-11-16T03:11:27.489Z,59308.56
2022-11-16T03:14:06.452Z,59387.25
2022-11-16T03:16:43.028Z,58969.03
2022-11-16T03:19:12.424Z,59153.28
2022-11-16T03:22:02.148Z,59145.00
2022-11-16T03:24:28.723Z,59113.94
2022-11-16T03:27:07.482Z,59109.81
2022-11-16T03:29:43.637Z,59496.97
2022-11-16T03:32:19.299Z,59074.59
2022-11-16T03:34:52.881Z,59049.75
2022-11-16T03:37:21.477Z,59111.88
2022-11-16T03:39:48.390Z,59122.22
2022-11-16T03:42:15.158Z,59111.88
2022-11-16T03:44:43.873Z,59101.53
2022-11-16T03:47:10.708Z,59128.44
2022-11-16T03:49:37.261Z,59099.44
2022-11-16T03:52:03.958Z,59116.00
2022-11-16T03:54:30.468Z,59060.13
2022-11-16T03:56:57.030Z,59105.66
2022-11-16T03:59:23.684Z,59066.31
2022-11-16T04:01:50.185Z,59107.72
2022-11-16T04:04:35.151Z,59120.16
2022-11-16T04:07:21.890Z,59190.53
2022-11-16T04:10:06.906Z,59012.50
2022-11-16T04:12:51.998Z,59066.31
2022-11-16T04:15:37.569Z,59107.72
2022-11-16T04:18:22.954Z,59066.31
2022-11-16T04:24:09.907Z,59101.53
2022-11-16T04:26:58.583Z,59138.78
2022-11-16T04:29:25.480Z,59043.56
2022-11-16T04:32:10.637Z,59482.47
2022-11-16T04:34:56.161Z,59087.03
2022-11-16T04:37:41.309Z,59389.31
2022-11-16T04:40:10.017Z,59053.91
2022-11-16T04:42:36.477Z,59060.13
2022-11-16T04:45:23.700Z,59062.19
2022-11-16T04:47:50.729Z,59072.53
2022-11-16T04:50:18.671Z,59078.75
2022-11-16T04:52:45.535Z,59062.19
2022-11-16T04:55:12.460Z,59062.19
2022-11-16T04:57:39.628Z,59045.63
2022-11-16T05:00:07.742Z,59080.81
2022-11-16T05:02:34.354Z,59113.94
2022-11-16T05:05:00.831Z,59258.88
2022-11-16T05:07:28.426Z,59072.53
2022-11-16T05:09:54.832Z,59055.97
2022-11-16T05:12:23.967Z,59087.03
2022-11-16T05:14:50.811Z,59099.44
2022-11-16T05:17:18.261Z,59180.19
2022-11-16T05:20:03.391Z,59099.44
2022-11-16T05:22:29.788Z,59120.16
2022-11-16T05:24:56.225Z,59105.66
2022-11-16T05:27:23.971Z,59041.47
2022-11-16T05:29:50.543Z,59060.13
2022-11-16T05:32:18.137Z,59099.44
2022-11-16T05:34:44.671Z,59205.03
2022-11-16T05:37:11.097Z,59066.31
2022-11-16T05:39:38.002Z,59008.34
2022-11-16T05:42:05.499Z,59006.28
2022-11-16T05:44:31.911Z,59039.41
2022-11-16T05:46:58.351Z,59053.91
2022-11-16T05:49:25.087Z,59002.16
2022-11-16T05:51:51.770Z,59055.97
2022-11-16T05:54:20.239Z,59089.09
2022-11-16T05:56:47.943Z,59062.19
2022-11-16T05:59:19.190Z,59043.56
2022-11-16T06:01:46.538Z,59058.03
2022-11-16T06:04:13.791Z,58979.38
2022-11-16T06:06:40.680Z,59055.97
2022-11-16T06:09:09.991Z,59058.03
2022-11-16T06:11:38.083Z,59029.06
2022-11-16T06:14:04.991Z,59033.19
2022-11-16T06:16:31.436Z,59029.06
2022-11-16T06:18:59.026Z,59006.28
2022-11-16T06:21:25.502Z,59072.53
2022-11-16T06:23:51.924Z,59062.19
2022-11-16T06:26:18.386Z,59165.69
2022-11-16T06:28:44.917Z,58993.88
2022-11-16T06:31:11.359Z,59035.28
2022-11-16T06:33:37.840Z,59010.44
2022-11-16T06:36:04.540Z,59064.25
2022-11-16T06:38:30.969Z,58995.94
2022-11-16T06:40:58.494Z,58966.94
2022-11-16T06:43:25.585Z,58998.00
2022-11-16T06:45:57.976Z,59055.97
2022-11-16T06:48:24.892Z,59033.19
2022-11-16T06:50:52.141Z,59004.22
2022-11-16T06:53:19.121Z,58991.78
2022-11-16T06:55:45.712Z,59002.16
2022-11-16T06:58:12.280Z,59035.28
2022-11-16T07:00:38.754Z,58977.31
2022-11-16T07:03:05.533Z,59006.28
2022-11-16T07:05:33.078Z,58964.88
2022-11-16T07:07:59.491Z,58995.94
2022-11-16T07:10:26.263Z,58977.31
2022-11-16T07:12:52.731Z,59161.56
2022-11-16T07:15:19.890Z,58948.31
2022-11-16T07:17:46.323Z,58977.31
2022-11-16T07:20:13.070Z,58933.81
2022-11-16T07:22:39.456Z,59163.63
2022-11-16T07:25:06.444Z,58933.81
2022-11-16T07:27:32.811Z,58900.69
2022-11-16T07:30:00.596Z,58913.13
2022-11-16T07:32:28.846Z,58946.25
2022-11-16T07:34:58.025Z,58983.50
2022-11-16T07:37:25.678Z,58952.47
2022-11-16T07:39:52.066Z,58915.19
2022-11-16T07:42:18.544Z,58882.06
2022-11-16T07:44:44.941Z,58875.84
2022-11-16T07:47:11.397Z,58946.25
2022-11-16T07:49:37.876Z,58933.81
2022-11-16T07:52:04.292Z,59136.72
2022-11-16T07:54:30.679Z,58998.00
2022-11-16T07:56:57.122Z,59068.41
2022-11-16T07:59:23.555Z,59223.69
2022-11-16T08:01:50.040Z,58991.78
2022-11-16T08:04:17.451Z,58917.25
2022-11-16T08:06:44.669Z,58946.25
2022-11-16T08:09:11.292Z,58931.75
2022-11-16T08:11:38.044Z,58884.13
2022-11-16T08:14:04.540Z,58896.56
2022-11-16T08:16:33.489Z,58902.78
2022-11-16T08:19:01.100Z,58871.72
2022-11-16T08:21:27.549Z,58942.09
2022-11-16T08:23:58.394Z,58908.97
2022-11-16T08:26:25.805Z,58793.06
2022-11-16T08:28:53.644Z,58851.00
2022-11-16T08:31:22.552Z,58919.34
2022-11-16T08:33:49.010Z,58871.72
2022-11-16T08:36:18.576Z,58950.38
2022-11-16T08:38:48.778Z,58892.41
2022-11-16T08:41:15.885Z,58985.59
2022-11-16T08:43:42.559Z,58931.75
2022-11-16T08:46:10.040Z,58958.66
2022-11-16T08:48:37.252Z,58971.09
2022-11-16T08:51:21.462Z,58940.03
2022-11-16T08:53:49.666Z,59014.56
2022-11-16T08:56:17.868Z,59045.63
2022-11-16T08:58:46.674Z,58983.50
2022-11-16T09:01:18.290Z,58991.78
2022-11-16T09:03:45.555Z,59027.00
2022-11-16T09:06:12.849Z,58985.59
2022-11-16T09:08:40.892Z,59010.44
2022-11-16T09:11:08.776Z,59105.66
2022-11-16T09:13:35.208Z,59128.44
2022-11-16T09:16:02.161Z,59107.72
2022-11-16T09:18:29.336Z,59163.63
2022-11-16T09:20:55.788Z,59072.53
2022-11-16T09:23:25.614Z,59037.34
2022-11-16T09:25:52.430Z,59066.31
2022-11-16T09:28:18.911Z,58995.94
2022-11-16T09:30:46.619Z,58991.78
2022-11-16T09:33:13.314Z,58989.72
2022-11-16T09:35:40.042Z,58979.38
2022-11-16T09:38:06.683Z,59132.56
2022-11-16T09:40:36.739Z,59138.78
2022-11-16T09:43:15.214Z,59275.44
2022-11-16T09:45:48.533Z,59414.16
2022-11-16T09:48:16.091Z,59215.41
2022-11-16T09:50:53.511Z,59385.16
2022-11-16T09:53:36.311Z,59424.50
2022-11-16T09:56:22.617Z,59267.16
2022-11-16T09:58:58.201Z,59219.53
2022-11-16T10:01:42.999Z,59196.75
2022-11-16T10:04:17.748Z,59223.69
2022-11-16T10:06:53.486Z,59320.97
2022-11-16T10:09:20.067Z,59405.88
2022-11-16T10:12:16.530Z,59443.16
2022-11-16T10:15:07.669Z,59381.03
2022-11-16T10:17:39.888Z,59215.41
2022-11-16T10:20:29.177Z,59484.56
2022-11-16T10:23:10.060Z,59238.16
2022-11-16T10:25:42.919Z,59211.25
2022-11-16T10:28:24.550Z,59310.63
2022-11-16T10:31:10.163Z,59364.47
2022-11-16T10:33:37.278Z,59354.13
2022-11-16T10:36:10.730Z,59399.66
2022-11-16T10:43:59.273Z,59420.38
2022-11-16T10:46:33.709Z,59445.22
2022-11-16T10:49:15.824Z,59364.47
2022-11-16T10:51:42.832Z,59405.88
2022-11-16T10:54:13.697Z,59604.66
2022-11-16T10:56:46.649Z,59863.47
2022-11-16T10:59:15.032Z,59813.78
2022-11-16T11:01:43.401Z,59666.78
2022-11-16T11:04:24.274Z,59749.59
2022-11-16T11:07:01.612Z,59768.22
2022-11-16T11:09:33.324Z,59455.56
2022-11-16T11:12:39.077Z,59434.88
2022-11-16T11:15:24.277Z,59693.69
2022-11-16T11:18:30.518Z,59441.06
2022-11-16T11:21:21.742Z,59619.16
2022-11-16T11:23:51.463Z,59892.47
2022-11-16T11:26:37.440Z,59888.34
2022-11-16T11:29:28.025Z,60060.22
2022-11-16T11:31:58.172Z,59962.88
2022-11-16T11:34:27.229Z,59749.59
2022-11-16T11:37:04.008Z,59720.59
2022-11-16T11:39:37.181Z,59786.88
2022-11-16T11:42:20.214Z,59768.22
2022-11-16T11:44:52.580Z,59683.34
2022-11-16T11:50:47.109Z,59608.78
2022-11-16T11:53:44.337Z,59627.44
2022-11-16T11:56:11.658Z,59608.78
2022-11-16T11:58:39.746Z,59577.72
2022-11-16T12:01:42.819Z,59743.38
2022-11-16T12:04:43.336Z,60101.63
2022-11-16T12:07:28.020Z,59900.75
2022-11-16T12:09:59.310Z,59985.66
2022-11-16T12:12:49.350Z,59935.97
2022-11-16T12:15:47.669Z,59836.56
2022-11-16T12:18:35.625Z,59704.03
2022-11-16T12:21:15.332Z,59853.13
2022-11-16T12:24:18.778Z,59753.75
2022-11-16T12:27:16.212Z,59828.28
2022-11-16T12:30:08.849Z,59817.94
2022-11-16T12:32:57.343Z,59987.72
2022-11-16T12:35:53.039Z,59851.06
2022-11-16T12:38:34.366Z,59795.16
2022-11-16T12:41:28.679Z,59718.53
2022-11-16T12:44:03.384Z,59704.03
2022-11-16T12:46:57.280Z,59890.41
2022-11-16T12:49:57.209Z,59774.44
2022-11-16T12:52:43.302Z,59890.41
2022-11-16T12:55:26.319Z,59956.66
2022-11-16T12:58:02.583Z,59973.25
2022-11-16T13:00:33.310Z,59973.25
2022-11-16T13:03:16.399Z,59956.66
2022-11-16T13:05:42.718Z,60022.94
2022-11-16T13:08:32.754Z,60018.78
2022-11-16T13:11:24.021Z,60060.22
2022-11-16T13:13:55.350Z,60099.56
2022-11-16T13:16:22.950Z,59942.19
2022-11-16T13:18:49.806Z,60058.16
2022-11-16T13:21:35.606Z,59967.03
2022-11-16T13:24:25.071Z,60078.84
2022-11-16T13:27:01.519Z,60101.63
2022-11-16T13:29:37.667Z,60190.69
2022-11-16T13:32:26.124Z,60157.53
2022-11-16T13:34:53.044Z,60095.41
2022-11-16T13:37:37.993Z,60136.84
2022-11-16T13:40:04.526Z,60097.50
2022-11-16T13:42:33.373Z,60022.94
2022-11-16T13:45:16.062Z,60167.91
2022-11-16T13:47:49.814Z,60041.56
2022-11-16T13:50:22.936Z,60254.88
2022-11-16T13:54:10.917Z,60151.34
2022-11-16T13:55:44.233Z,60054.00
2022-11-16T13:58:18.855Z,60074.72
2022-11-16T14:00:55.902Z,60056.06
2022-11-16T14:03:22.222Z,60006.38
2022-11-16T14:05:50.776Z,60176.19
2022-11-16T14:08:20.293Z,60008.44
2022-11-16T14:10:52.318Z,60132.69
2022-11-16T14:13:39.979Z,60091.28
2022-11-16T14:16:21.655Z,60155.47
2022-11-16T14:18:51.859Z,60047.78
2022-11-16T14:21:33.575Z,59929.75
2022-11-16T14:24:18.897Z,59956.66
2022-11-16T14:27:10.534Z,59981.53
2022-11-16T14:29:58.935Z,60014.66
2022-11-16T14:32:31.408Z,59900.75
2022-11-16T14:34:59.128Z,59896.63
2022-11-16T14:37:25.526Z,59766.16
2022-11-16T14:39:59.042Z,59944.25
2022-11-16T14:42:34.529Z,59691.63
2022-11-16T14:45:16.583Z,59627.44
2022-11-16T14:47:43.450Z,59577.72
2022-11-16T14:50:22.356Z,59780.66
2022-11-16T14:52:51.254Z,59604.66
2022-11-16T14:55:24.349Z,59559.09
2022-11-16T14:58:13.769Z,59561.16
2022-11-16T15:00:40.240Z,59482.47
2022-11-16T15:03:10.484Z,59596.38
2022-11-16T15:05:37.628Z,59542.53
2022-11-16T15:08:14.648Z,59637.78
2022-11-16T15:10:48.085Z,59648.13
2022-11-16T15:13:22.855Z,59786.88
2022-11-16T15:15:50.307Z,59633.63
2022-11-16T15:18:18.812Z,59610.88
2022-11-16T15:20:50.700Z,59540.47
2022-11-16T15:23:18.077Z,59523.91
2022-11-16T15:26:04.563Z,59530.09
2022-11-16T15:28:33.319Z,59797.22
2022-11-16T15:31:01.843Z,59534.25
2022-11-16T15:33:31.015Z,59455.56
2022-11-16T15:35:58.060Z,59393.44
2022-11-16T15:38:29.931Z,59389.31
2022-11-16T15:40:58.794Z,59339.63
2022-11-16T15:43:29.763Z,59523.91
2022-11-16T15:45:56.111Z,59219.53
2022-11-16T15:48:23.882Z,59078.75
2022-11-16T15:51:08.472Z,59103.59
2022-11-16T15:53:45.923Z,59103.59
2022-11-16T15:56:16.434Z,59095.31
2022-11-16T15:58:43.240Z,58998.00
2022-11-16T16:01:13.787Z,58962.81
2022-11-16T16:03:49.771Z,58954.53
2022-11-16T16:06:46.723Z,58900.69
2022-11-16T16:09:22.427Z,58859.28
2022-11-16T16:11:48.852Z,58871.72
2022-11-16T16:14:29.482Z,58842.72
2022-11-16T16:16:58.333Z,58786.84
2022-11-16T16:19:31.757Z,58795.13
2022-11-16T16:21:59.446Z,58737.16
2022-11-16T16:24:35.074Z,58774.41
2022-11-16T16:27:01.490Z,58660.56
2022-11-16T16:29:28.459Z,58666.78
2022-11-16T16:31:55.810Z,58660.56
2022-11-16T16:34:22.213Z,58590.19
2022-11-16T16:36:48.591Z,58559.13
2022-11-16T16:39:14.974Z,58575.69
2022-11-16T16:41:41.470Z,58571.53
2022-11-16T16:44:14.160Z,58559.13
2022-11-16T16:46:40.623Z,58540.50
2022-11-16T16:49:07.970Z,58490.81
2022-11-16T16:51:34.369Z,58559.13
2022-11-16T16:54:00.782Z,58391.44
2022-11-16T16:56:27.221Z,58383.16
2022-11-16T16:58:54.062Z,58408.00
2022-11-16T17:01:21.206Z,58345.91
2022-11-16T17:03:47.920Z,58530.13
2022-11-16T17:06:14.424Z,58358.34
2022-11-16T17:08:40.801Z,58325.22
2022-11-16T17:11:07.243Z,58366.59
2022-11-16T17:13:34.002Z,58445.28
2022-11-16T17:16:04.436Z,58420.44
2022-11-16T17:18:30.799Z,58370.75
2022-11-16T17:21:06.305Z,58372.81
2022-11-16T17:23:33.180Z,58422.50
2022-11-16T17:26:03.973Z,58354.19
2022-11-16T17:28:30.462Z,58370.75
2022-11-16T17:31:11.419Z,58362.47
2022-11-16T17:33:40.347Z,58362.47
2022-11-16T17:36:08.276Z,58405.94
2022-11-16T17:38:35.062Z,58401.81
2022-11-16T17:41:05.935Z,58403.88
2022-11-16T17:43:33.144Z,58399.72
2022-11-16T17:46:10.805Z,58426.63
2022-11-16T17:48:38.185Z,58532.22
2022-11-16T17:51:05.214Z,58449.41
2022-11-16T17:53:34.084Z,58468.03
2022-11-16T17:56:01.556Z,58505.31
2022-11-16T17:58:28.816Z,58507.38
2022-11-16T18:00:55.235Z,58668.84
2022-11-16T18:03:23.949Z,58472.19
2022-11-16T18:05:51.658Z,58468.03
2022-11-16T18:08:19.242Z,58526.00
2022-11-16T18:10:45.641Z,58480.47
2022-11-16T18:13:12.008Z,58474.25
2022-11-16T18:15:42.413Z,58550.84
2022-11-16T18:18:09.036Z,58526.00
2022-11-16T18:20:36.871Z,58552.91
2022-11-16T18:23:04.322Z,58739.22
2022-11-16T18:25:30.698Z,58523.94
2022-11-16T18:27:57.382Z,58552.91
2022-11-16T18:30:25.185Z,58565.34
2022-11-16T18:32:51.576Z,58507.38
2022-11-16T18:35:17.967Z,58532.22
2022-11-16T18:37:44.618Z,58554.97
2022-11-16T18:40:12.047Z,58532.22
2022-11-16T18:42:39.177Z,58817.88
2022-11-16T18:45:06.160Z,58666.78
2022-11-16T18:47:32.637Z,58505.31
2022-11-16T18:49:59.077Z,58403.88
2022-11-16T18:52:26.204Z,58430.78
2022-11-16T18:54:52.554Z,58374.88
2022-11-16T18:57:18.963Z,58432.84
2022-11-16T18:59:45.474Z,58399.72
2022-11-16T19:02:12.402Z,58623.28
2022-11-16T19:04:40.183Z,58354.19
2022-11-16T19:07:07.753Z,58426.63
2022-11-16T19:09:34.244Z,58374.88
2022-11-16T19:12:00.617Z,58420.44
2022-11-16T19:14:27.030Z,58478.38
2022-11-16T19:16:57.122Z,58463.91
2022-11-16T19:19:24.212Z,58455.63
2022-11-16T19:21:51.822Z,58592.25
2022-11-16T19:24:18.210Z,58445.28
2022-11-16T19:26:44.690Z,58492.88
2022-11-16T19:29:11.085Z,58468.03
2022-11-16T19:31:37.503Z,58447.34
2022-11-16T19:34:06.432Z,58499.09
2022-11-16T19:36:34.673Z,58480.47
2022-11-16T19:39:01.266Z,58468.03
2022-11-16T19:41:28.273Z,58670.91
2022-11-16T19:43:59.705Z,58726.81
2022-11-16T19:46:27.931Z,58480.47
2022-11-16T19:48:55.058Z,58434.91
2022-11-16T19:51:32.516Z,58505.31
2022-11-16T19:54:00.111Z,58536.34
2022-11-16T19:56:26.771Z,58540.50
2022-11-16T19:58:53.349Z,58617.09
2022-11-16T20:01:28.631Z,58581.91
2022-11-16T20:03:57.054Z,58623.28
2022-11-16T20:06:30.979Z,58606.72
2022-11-16T20:09:00.716Z,58664.69
2022-11-16T20:11:29.096Z,58623.28
2022-11-16T20:13:56.552Z,58652.28
2022-11-16T20:16:25.179Z,58691.59
2022-11-16T20:18:52.364Z,58875.84
2022-11-16T20:21:22.625Z,58672.97
2022-11-16T20:23:50.402Z,58724.72
2022-11-16T20:26:17.062Z,58701.97
2022-11-16T20:28:44.112Z,58747.50
2022-11-16T20:31:15.762Z,58743.38
2022-11-16T20:33:43.095Z,58730.94
2022-11-16T20:36:11.067Z,58718.53
2022-11-16T20:38:38.998Z,58660.56
2022-11-16T20:41:16.131Z,58706.09
2022-11-16T20:43:43.818Z,58724.72
2022-11-16T20:46:12.573Z,58679.19
2022-11-16T20:48:40.518Z,58720.59
2022-11-16T20:51:08.659Z,58757.84
2022-11-16T20:53:35.617Z,58716.44
2022-11-16T20:56:03.496Z,58766.13
2022-11-16T20:58:31.186Z,58730.94
2022-11-16T21:01:08.604Z,58741.28
2022-11-16T21:03:35.497Z,58706.09
2022-11-16T21:06:02.288Z,58966.94
2022-11-16T21:08:31.915Z,58730.94
2022-11-16T21:10:58.928Z,58813.75
2022-11-16T21:13:43.919Z,58815.81
2022-11-16T21:16:12.200Z,58822.03
2022-11-16T21:18:39.738Z,58778.56
2022-11-16T21:21:08.002Z,58822.03
2022-11-16T21:23:36.352Z,59064.25
2022-11-16T21:26:13.795Z,58807.53
2022-11-16T21:28:40.863Z,58751.66
2022-11-16T21:31:10.099Z,58830.31
2022-11-16T21:33:37.198Z,58830.31
2022-11-16T21:36:15.062Z,58788.91
2022-11-16T21:38:41.919Z,58776.50
2022-11-16T21:41:10.143Z,58834.44
2022-11-16T21:43:40.633Z,58822.03
2022-11-16T21:46:13.004Z,58844.81
2022-11-16T21:48:40.045Z,58838.59
2022-11-16T21:51:11.525Z,58869.66
2022-11-16T21:53:38.515Z,58832.38
2022-11-16T21:56:08.741Z,58867.56
2022-11-16T21:58:35.207Z,58793.06
2022-11-16T22:01:02.265Z,58875.84
2022-11-16T22:03:30.266Z,58863.44
2022-11-16T22:06:19.952Z,58853.09
2022-11-16T22:08:48.084Z,58857.22
2022-11-16T22:11:15.523Z,58908.97
2022-11-16T22:13:42.184Z,58851.00
2022-11-16T22:16:11.474Z,58898.63
2022-11-16T22:18:38.154Z,58884.13
2022-11-16T22:21:05.242Z,58894.50
2022-11-16T22:23:31.959Z,58890.34
2022-11-16T22:26:03.664Z,58931.75
2022-11-16T22:28:30.540Z,58964.88
2022-11-16T22:31:01.743Z,58927.63
2022-11-16T22:33:29.589Z,58929.69
2022-11-16T22:35:56.346Z,58950.38
2022-11-16T22:38:22.885Z,58929.69
2022-11-16T22:40:54.121Z,58898.63
2022-11-16T22:43:21.856Z,58942.09
2022-11-16T22:45:48.415Z,58851.00
2022-11-16T22:48:16.420Z,58888.28
2022-11-16T22:50:43.572Z,58942.09
2022-11-16T22:53:10.478Z,59000.06
2022-11-16T22:55:38.154Z,58971.09
2022-11-16T22:58:05.540Z,58954.53
2022-11-16T23:00:37.478Z,58964.88
2022-11-16T23:03:07.534Z,58931.75
2022-11-16T23:05:34.003Z,58956.59
2022-11-16T23:08:00.431Z,58923.47
2022-11-16T23:10:27.134Z,58975.22
2022-11-16T23:13:12.146Z,58942.09
2022-11-16T23:15:50.698Z,58983.50
2022-11-16T23:18:19.118Z,59000.06
2022-11-16T23:21:04.161Z,59267.16
2022-11-16T23:24:02.634Z,59165.69
2022-11-16T23:26:47.747Z,59010.44
2022-11-16T23:29:14.166Z,59008.34
2022-11-16T23:31:40.554Z,59002.16
2022-11-16T23:34:06.982Z,58962.81
2022-11-16T23:36:33.419Z,58908.97
2022-11-16T23:38:59.839Z,58880.00
2022-11-16T23:41:44.552Z,58952.47
2022-11-16T23:44:11.220Z,58824.09
2022-11-16T23:46:37.639Z,58801.31
2022-11-16T23:49:04.267Z,58778.56
2022-11-16T23:51:30.701Z,58768.22
2022-11-16T23:53:57.344Z,58764.06
2022-11-16T23:56:24.014Z,58745.44
2022-11-16T23:58:50.619Z,58780.63
